Other Surface Observations
Issued by NWS Missoula, MT

Home | Current Version | Previous Version | Text Only | Print | Product List | Glossary On
Versions: 1 2 3 4 5 6 7 8 9 10 11 12 13 14 15 16 17 18 19 20 21 22 23 24 25 26 27 28 29 30 31 32 33 34 35 36 37 38 39 40 41 42 43 44 45 46 47 48 49 50
000
SXUS55 KMSO 231304
OSOMSO
MONTANA AWOS SUMMARY
NATIONAL WEATHER SERVICE MISSOULA MT
603 AM MST WED APR 23 2014

Montana AWOS Reports

LAUREL      |K6S8 231255Z AUTO 26019G27KT 40SM 06/M04 A2962 RMK AO1 T00561043
ROUNDUP     |KRPX 231255Z AUTO 19004KT 40SM 07/00 A2951 RMK AO1 T00670000
MALTA       |KM75 231255Z AUTO 25016G20KT 7SM 08/04 A2949 RMK AO1 T00780044
TWIN BRIDGES|K7S1 231255Z AUTO 00000KT 40SM 01/M04 A2982 RMK AO1 T00061043




USA.gov is the U.S. government's official web portal to all federal, state and local government web resources and services.